Amenia, New York
Current Conditions -  °F | °C
As of 10:53 PM on Wednesday 22 Oct 2014 (Local Time) from KPOU Reporting Station
Moderate Rain Moderate Rain  
Wind Chill: 10°   Ceiling: 1400
Heat Index: 10°   Visibility: 5mi
Dew Point:   Wind: 13mph
Humidity: 86%   Direction: 30°NNE
Pressure: 29.84"   Gusts: 26mph
Location:  41.85°N, 73.55°W
Report Text: KPOU 230253Z AUTO 03011G23KT 5SM RA BR OVC014 10/08 A2984 RMK AO2 SLP103 P0012 60017 T01000078 55010 TSNO
Loading
Personal Weather Stations






























Interactive Weather Map
Tropical Storm Tracking
New forecast layout! Learn more

10-Day Weather Forecast

Advertisements
Track Severe Weather on mobile